sensor_id;sensor_type;location;lat;lon;timestamp;P1;durP1;ratioP1;P2;durP2;ratioP2
35847;SDS011;22332;51.954;20.118;2023-05-10T00:01:22;7.60;;;4.60;;
35847;SDS011;22332;51.954;20.118;2023-05-10T00:04:28;8.00;;;4.70;;
35847;SDS011;22332;51.954;20.118;2023-05-10T00:07:33;6.80;;;4.50;;
35847;SDS011;22332;51.954;20.118;2023-05-10T00:10:39;8.90;;;5.70;;
35847;SDS011;22332;51.954;20.118;2023-05-10T00:13:44;7.60;;;5.40;;
35847;SDS011;22332;51.954;20.118;2023-05-10T00:16:50;8.10;;;5.30;;
35847;SDS011;22332;51.954;20.118;2023-05-10T00:19:55;6.60;;;4.60;;
35847;SDS011;22332;51.954;20.118;2023-05-10T00:23:01;6.80;;;4.70;;
35847;SDS011;22332;51.954;20.118;2023-05-10T00:26:06;7.70;;;4.80;;
35847;SDS011;22332;51.954;20.118;2023-05-10T00:29:14;5.40;;;4.00;;
35847;SDS011;22332;51.954;20.118;2023-05-10T00:32:19;7.00;;;4.70;;
35847;SDS011;22332;51.954;20.118;2023-05-10T00:35:25;6.80;;;4.50;;
35847;SDS011;22332;51.954;20.118;2023-05-10T00:38:30;6.40;;;4.40;;
35847;SDS011;22332;51.954;20.118;2023-05-10T00:41:36;8.40;;;5.40;;
35847;SDS011;22332;51.954;20.118;2023-05-10T00:44:42;6.90;;;4.70;;
35847;SDS011;22332;51.954;20.118;2023-05-10T00:47:50;7.40;;;4.70;;
35847;SDS011;22332;51.954;20.118;2023-05-10T00:50:57;9.70;;;4.90;;
35847;SDS011;22332;51.954;20.118;2023-05-10T00:54:04;8.40;;;4.40;;
35847;SDS011;22332;51.954;20.118;2023-05-10T00:57:10;6.90;;;4.50;;
35847;SDS011;22332;51.954;20.118;2023-05-10T01:00:16;7.20;;;4.40;;
35847;SDS011;22332;51.954;20.118;2023-05-10T01:03:21;6.80;;;4.60;;
35847;SDS011;22332;51.954;20.118;2023-05-10T01:06:27;7.10;;;4.50;;
35847;SDS011;22332;51.954;20.118;2023-05-10T01:09:33;7.00;;;4.60;;
35847;SDS011;22332;51.954;20.118;2023-05-10T01:12:39;10.10;;;5.00;;
35847;SDS011;22332;51.954;20.118;2023-05-10T01:15:47;9.10;;;4.90;;
35847;SDS011;22332;51.954;20.118;2023-05-10T01:18:53;7.20;;;4.80;;
35847;SDS011;22332;51.954;20.118;2023-05-10T01:22:00;7.10;;;4.90;;
35847;SDS011;22332;51.954;20.118;2023-05-10T01:25:22;7.90;;;4.90;;
35847;SDS011;22332;51.954;20.118;2023-05-10T01:29:05;6.20;;;4.30;;
35847;SDS011;22332;51.954;20.118;2023-05-10T01:32:23;6.60;;;4.50;;
35847;SDS011;22332;51.954;20.118;2023-05-10T01:35:37;6.40;;;4.70;;
35847;SDS011;22332;51.954;20.118;2023-05-10T01:38:47;9.70;;;5.00;;
35847;SDS011;22332;51.954;20.118;2023-05-10T01:41:57;8.00;;;4.30;;
35847;SDS011;22332;51.954;20.118;2023-05-10T01:45:13;7.00;;;4.70;;
35847;SDS011;22332;51.954;20.118;2023-05-10T01:48:23;7.40;;;4.50;;
35847;SDS011;22332;51.954;20.118;2023-05-10T01:51:35;6.70;;;5.10;;
35847;SDS011;22332;51.954;20.118;2023-05-10T01:54:44;9.30;;;5.00;;
35847;SDS011;22332;51.954;20.118;2023-05-10T01:58:01;7.00;;;4.40;;
35847;SDS011;22332;51.954;20.118;2023-05-10T02:01:10;6.60;;;4.90;;
35847;SDS011;22332;51.954;20.118;2023-05-10T02:04:17;9.30;;;5.90;;
35847;SDS011;22332;51.954;20.118;2023-05-10T02:07:25;9.50;;;5.60;;
35847;SDS011;22332;51.954;20.118;2023-05-10T02:10:32;7.50;;;5.00;;
35847;SDS011;22332;51.954;20.118;2023-05-10T02:13:40;7.30;;;5.00;;
35847;SDS011;22332;51.954;20.118;2023-05-10T02:16:50;7.20;;;4.70;;
35847;SDS011;22332;51.954;20.118;2023-05-10T02:19:58;9.90;;;6.60;;
35847;SDS011;22332;51.954;20.118;2023-05-10T02:23:05;10.10;;;5.90;;
35847;SDS011;22332;51.954;20.118;2023-05-10T02:26:12;7.30;;;5.00;;
35847;SDS011;22332;51.954;20.118;2023-05-10T02:29:20;7.70;;;4.80;;
35847;SDS011;22332;51.954;20.118;2023-05-10T02:32:28;8.40;;;4.50;;
35847;SDS011;22332;51.954;20.118;2023-05-10T02:35:35;7.90;;;4.70;;
35847;SDS011;22332;51.954;20.118;2023-05-10T02:38:41;6.70;;;4.90;;
35847;SDS011;22332;51.954;20.118;2023-05-10T02:41:49;10.70;;;5.60;;
35847;SDS011;22332;51.954;20.118;2023-05-10T02:44:59;9.40;;;5.40;;
35847;SDS011;22332;51.954;20.118;2023-05-10T02:48:07;7.90;;;5.20;;
35847;SDS011;22332;51.954;20.118;2023-05-10T02:51:13;7.60;;;5.20;;
35847;SDS011;22332;51.954;20.118;2023-05-10T02:54:24;9.90;;;5.30;;
35847;SDS011;22332;51.954;20.118;2023-05-10T02:57:33;10.30;;;5.60;;
35847;SDS011;22332;51.954;20.118;2023-05-10T03:00:42;9.90;;;5.90;;
35847;SDS011;22332;51.954;20.118;2023-05-10T03:03:48;9.20;;;5.50;;
35847;SDS011;22332;51.954;20.118;2023-05-10T03:06:54;8.10;;;5.40;;
35847;SDS011;22332;51.954;20.118;2023-05-10T03:10:00;9.80;;;5.40;;
35847;SDS011;22332;51.954;20.118;2023-05-10T03:13:10;8.60;;;5.50;;
35847;SDS011;22332;51.954;20.118;2023-05-10T03:16:22;7.60;;;4.90;;
35847;SDS011;22332;51.954;20.118;2023-05-10T03:19:35;7.80;;;4.70;;
35847;SDS011;22332;51.954;20.118;2023-05-10T03:22:49;7.90;;;5.10;;
35847;SDS011;22332;51.954;20.118;2023-05-10T03:25:57;8.30;;;4.70;;
35847;SDS011;22332;51.954;20.118;2023-05-10T03:29:04;7.40;;;5.00;;
35847;SDS011;22332;51.954;20.118;2023-05-10T03:32:11;14.20;;;5.70;;
35847;SDS011;22332;51.954;20.118;2023-05-10T03:35:17;7.50;;;4.70;;
35847;SDS011;22332;51.954;20.118;2023-05-10T03:38:23;9.00;;;5.00;;
35847;SDS011;22332;51.954;20.118;2023-05-10T03:41:29;8.90;;;4.90;;
35847;SDS011;22332;51.954;20.118;2023-05-10T03:44:34;7.80;;;5.00;;
35847;SDS011;22332;51.954;20.118;2023-05-10T03:47:41;6.90;;;5.10;;
35847;SDS011;22332;51.954;20.118;2023-05-10T03:50:47;6.30;;;4.70;;
35847;SDS011;22332;51.954;20.118;2023-05-10T03:53:52;7.40;;;4.80;;
35847;SDS011;22332;51.954;20.118;2023-05-10T03:56:58;7.10;;;4.40;;
35847;SDS011;22332;51.954;20.118;2023-05-10T04:00:08;7.00;;;5.10;;
35847;SDS011;22332;51.954;20.118;2023-05-10T04:03:17;8.20;;;5.00;;
35847;SDS011;22332;51.954;20.118;2023-05-10T04:06:23;10.40;;;5.30;;
35847;SDS011;22332;51.954;20.118;2023-05-10T04:09:29;9.00;;;5.70;;
35847;SDS011;22332;51.954;20.118;2023-05-10T04:12:35;15.40;;;9.00;;
35847;SDS011;22332;51.954;20.118;2023-05-10T04:15:40;26.30;;;15.90;;
35847;SDS011;22332;51.954;20.118;2023-05-10T04:18:46;17.30;;;10.60;;
35847;SDS011;22332;51.954;20.118;2023-05-10T04:21:52;12.60;;;8.00;;
35847;SDS011;22332;51.954;20.118;2023-05-10T04:24:57;14.50;;;9.70;;
35847;SDS011;22332;51.954;20.118;2023-05-10T04:28:03;12.30;;;7.80;;
35847;SDS011;22332;51.954;20.118;2023-05-10T04:31:09;12.40;;;6.90;;
35847;SDS011;22332;51.954;20.118;2023-05-10T04:34:15;15.10;;;7.40;;
35847;SDS011;22332;51.954;20.118;2023-05-10T04:37:20;13.40;;;7.30;;
35847;SDS011;22332;51.954;20.118;2023-05-10T04:40:26;12.10;;;6.20;;
35847;SDS011;22332;51.954;20.118;2023-05-10T04:43:32;10.90;;;5.60;;
35847;SDS011;22332;51.954;20.118;2023-05-10T04:46:38;7.70;;;5.10;;
35847;SDS011;22332;51.954;20.118;2023-05-10T04:49:43;10.00;;;5.30;;
35847;SDS011;22332;51.954;20.118;2023-05-10T04:52:49;7.60;;;4.70;;
35847;SDS011;22332;51.954;20.118;2023-05-10T04:55:54;6.60;;;4.50;;
35847;SDS011;22332;51.954;20.118;2023-05-10T04:59:00;6.30;;;4.50;;
35847;SDS011;22332;51.954;20.118;2023-05-10T05:02:05;6.20;;;4.30;;
35847;SDS011;22332;51.954;20.118;2023-05-10T05:05:11;8.50;;;4.20;;
35847;SDS011;22332;51.954;20.118;2023-05-10T05:08:17;6.20;;;4.50;;
35847;SDS011;22332;51.954;20.118;2023-05-10T05:11:23;5.70;;;4.30;;
35847;SDS011;22332;51.954;20.118;2023-05-10T05:14:29;8.80;;;3.90;;
35847;SDS011;22332;51.954;20.118;2023-05-10T05:17:34;9.20;;;4.30;;
35847;SDS011;22332;51.954;20.118;2023-05-10T05:20:40;6.20;;;4.30;;
35847;SDS011;22332;51.954;20.118;2023-05-10T05:23:45;7.50;;;4.00;;
35847;SDS011;22332;51.954;20.118;2023-05-10T05:26:51;5.60;;;3.80;;
35847;SDS011;22332;51.954;20.118;2023-05-10T05:29:56;4.60;;;3.70;;
35847;SDS011;22332;51.954;20.118;2023-05-10T05:33:02;6.00;;;3.70;;
35847;SDS011;22332;51.954;20.118;2023-05-10T05:36:08;5.20;;;3.50;;
35847;SDS011;22332;51.954;20.118;2023-05-10T05:39:13;5.30;;;3.90;;
35847;SDS011;22332;51.954;20.118;2023-05-10T05:42:19;6.20;;;3.90;;
35847;SDS011;22332;51.954;20.118;2023-05-10T05:45:25;6.30;;;3.50;;
35847;SDS011;22332;51.954;20.118;2023-05-10T05:48:30;4.50;;;3.60;;
35847;SDS011;22332;51.954;20.118;2023-05-10T05:51:36;6.80;;;3.30;;
35847;SDS011;22332;51.954;20.118;2023-05-10T05:54:41;4.70;;;3.40;;
35847;SDS011;22332;51.954;20.118;2023-05-10T05:57:47;7.10;;;3.80;;
35847;SDS011;22332;51.954;20.118;2023-05-10T06:00:53;6.20;;;3.50;;
35847;SDS011;22332;51.954;20.118;2023-05-10T06:03:58;7.80;;;3.60;;
35847;SDS011;22332;51.954;20.118;2023-05-10T06:07:04;5.20;;;3.20;;
35847;SDS011;22332;51.954;20.118;2023-05-10T06:10:09;4.80;;;3.60;;
35847;SDS011;22332;51.954;20.118;2023-05-10T06:13:15;4.80;;;3.40;;
35847;SDS011;22332;51.954;20.118;2023-05-10T06:16:20;6.50;;;3.30;;
35847;SDS011;22332;51.954;20.118;2023-05-10T06:19:26;7.30;;;3.10;;
35847;SDS011;22332;51.954;20.118;2023-05-10T06:22:31;4.80;;;2.90;;
35847;SDS011;22332;51.954;20.118;2023-05-10T06:25:37;4.30;;;2.60;;
35847;SDS011;22332;51.954;20.118;2023-05-10T06:28:42;5.80;;;2.80;;
35847;SDS011;22332;51.954;20.118;2023-05-10T06:31:48;5.20;;;2.90;;
35847;SDS011;22332;51.954;20.118;2023-05-10T06:34:53;6.60;;;3.60;;
35847;SDS011;22332;51.954;20.118;2023-05-10T06:37:59;5.50;;;3.10;;
35847;SDS011;22332;51.954;20.118;2023-05-10T06:41:05;5.00;;;3.00;;
35847;SDS011;22332;51.954;20.118;2023-05-10T06:44:10;5.50;;;3.10;;
35847;SDS011;22332;51.954;20.118;2023-05-10T06:47:16;6.20;;;2.80;;
35847;SDS011;22332;51.954;20.118;2023-05-10T06:50:22;4.50;;;2.90;;
35847;SDS011;22332;51.954;20.118;2023-05-10T06:53:27;5.40;;;3.30;;
35847;SDS011;22332;51.954;20.118;2023-05-10T06:56:33;4.30;;;3.00;;
35847;SDS011;22332;51.954;20.118;2023-05-10T06:59:38;4.30;;;2.60;;
35847;SDS011;22332;51.954;20.118;2023-05-10T07:02:44;3.40;;;2.30;;
35847;SDS011;22332;51.954;20.118;2023-05-10T07:05:49;4.40;;;2.80;;
35847;SDS011;22332;51.954;20.118;2023-05-10T07:08:55;3.70;;;2.50;;
35847;SDS011;22332;51.954;20.118;2023-05-10T07:12:00;3.90;;;2.80;;
35847;SDS011;22332;51.954;20.118;2023-05-10T07:15:07;5.40;;;2.70;;
35847;SDS011;22332;51.954;20.118;2023-05-10T07:18:14;5.70;;;2.50;;
35847;SDS011;22332;51.954;20.118;2023-05-10T07:21:19;3.60;;;2.50;;
35847;SDS011;22332;51.954;20.118;2023-05-10T07:24:26;5.10;;;2.70;;
35847;SDS011;22332;51.954;20.118;2023-05-10T07:27:32;5.40;;;2.50;;
35847;SDS011;22332;51.954;20.118;2023-05-10T07:30:38;7.60;;;2.50;;
35847;SDS011;22332;51.954;20.118;2023-05-10T07:33:43;3.70;;;2.50;;
35847;SDS011;22332;51.954;20.118;2023-05-10T07:36:49;4.30;;;2.50;;
35847;SDS011;22332;51.954;20.118;2023-05-10T07:39:55;6.20;;;2.60;;
35847;SDS011;22332;51.954;20.118;2023-05-10T07:43:01;4.60;;;2.50;;
35847;SDS011;22332;51.954;20.118;2023-05-10T07:46:06;5.60;;;2.40;;
35847;SDS011;22332;51.954;20.118;2023-05-10T07:49:13;7.20;;;2.90;;
35847;SDS011;22332;51.954;20.118;2023-05-10T07:52:19;5.00;;;2.40;;
35847;SDS011;22332;51.954;20.118;2023-05-10T07:55:24;5.40;;;2.40;;
35847;SDS011;22332;51.954;20.118;2023-05-10T07:58:30;6.70;;;2.30;;
35847;SDS011;22332;51.954;20.118;2023-05-10T08:01:36;2.40;;;2.10;;
35847;SDS011;22332;51.954;20.118;2023-05-10T08:04:41;3.20;;;2.30;;
35847;SDS011;22332;51.954;20.118;2023-05-10T08:07:47;5.60;;;2.50;;
35847;SDS011;22332;51.954;20.118;2023-05-10T08:10:52;3.00;;;2.60;;
35847;SDS011;22332;51.954;20.118;2023-05-10T08:13:58;4.80;;;2.80;;
35847;SDS011;22332;51.954;20.118;2023-05-10T08:17:03;4.40;;;2.20;;
35847;SDS011;22332;51.954;20.118;2023-05-10T08:20:09;4.90;;;2.60;;
35847;SDS011;22332;51.954;20.118;2023-05-10T08:23:19;4.00;;;2.20;;
35847;SDS011;22332;51.954;20.118;2023-05-10T08:26:24;4.20;;;2.00;;
35847;SDS011;22332;51.954;20.118;2023-05-10T08:29:30;2.70;;;2.00;;
35847;SDS011;22332;51.954;20.118;2023-05-10T08:32:35;4.20;;;2.10;;
35847;SDS011;22332;51.954;20.118;2023-05-10T08:35:41;5.10;;;2.30;;
35847;SDS011;22332;51.954;20.118;2023-05-10T08:38:47;4.70;;;2.40;;
35847;SDS011;22332;51.954;20.118;2023-05-10T08:41:53;5.50;;;2.30;;
35847;SDS011;22332;51.954;20.118;2023-05-10T08:45:01;3.90;;;2.00;;
35847;SDS011;22332;51.954;20.118;2023-05-10T08:48:09;3.60;;;2.10;;
35847;SDS011;22332;51.954;20.118;2023-05-10T08:51:17;3.50;;;2.30;;
35847;SDS011;22332;51.954;20.118;2023-05-10T08:54:26;4.80;;;2.20;;
35847;SDS011;22332;51.954;20.118;2023-05-10T08:57:32;3.10;;;2.20;;
35847;SDS011;22332;51.954;20.118;2023-05-10T09:00:39;3.00;;;2.10;;
35847;SDS011;22332;51.954;20.118;2023-05-10T09:03:45;5.50;;;2.30;;
35847;SDS011;22332;51.954;20.118;2023-05-10T09:06:51;4.00;;;2.00;;
35847;SDS011;22332;51.954;20.118;2023-05-10T09:09:57;2.40;;;1.90;;
35847;SDS011;22332;51.954;20.118;2023-05-10T09:13:03;4.10;;;2.10;;
35847;SDS011;22332;51.954;20.118;2023-05-10T09:16:09;5.80;;;2.50;;
35847;SDS011;22332;51.954;20.118;2023-05-10T09:19:15;4.10;;;2.20;;
35847;SDS011;22332;51.954;20.118;2023-05-10T09:22:21;2.60;;;2.00;;
35847;SDS011;22332;51.954;20.118;2023-05-10T09:25:27;3.50;;;2.00;;
35847;SDS011;22332;51.954;20.118;2023-05-10T09:28:33;3.60;;;2.40;;
35847;SDS011;22332;51.954;20.118;2023-05-10T09:31:53;4.70;;;2.40;;
35847;SDS011;22332;51.954;20.118;2023-05-10T09:34:59;5.00;;;2.10;;
35847;SDS011;22332;51.954;20.118;2023-05-10T09:38:11;5.30;;;3.50;;
35847;SDS011;22332;51.954;20.118;2023-05-10T09:41:17;5.30;;;2.10;;
35847;SDS011;22332;51.954;20.118;2023-05-10T09:44:26;3.40;;;2.00;;
35847;SDS011;22332;51.954;20.118;2023-05-10T09:47:32;3.90;;;2.00;;
35847;SDS011;22332;51.954;20.118;2023-05-10T09:50:38;4.40;;;1.90;;
35847;SDS011;22332;51.954;20.118;2023-05-10T09:53:44;2.70;;;2.00;;
35847;SDS011;22332;51.954;20.118;2023-05-10T09:56:50;3.50;;;1.90;;
35847;SDS011;22332;51.954;20.118;2023-05-10T09:59:55;3.60;;;2.30;;
35847;SDS011;22332;51.954;20.118;2023-05-10T10:03:04;2.40;;;1.90;;
35847;SDS011;22332;51.954;20.118;2023-05-10T10:06:10;2.10;;;1.90;;
35847;SDS011;22332;51.954;20.118;2023-05-10T10:09:22;3.90;;;2.00;;
35847;SDS011;22332;51.954;20.118;2023-05-10T10:12:29;7.20;;;2.00;;
35847;SDS011;22332;51.954;20.118;2023-05-10T10:15:34;3.50;;;2.00;;
35847;SDS011;22332;51.954;20.118;2023-05-10T10:18:40;4.90;;;2.10;;
35847;SDS011;22332;51.954;20.118;2023-05-10T10:21:47;3.70;;;2.30;;
35847;SDS011;22332;51.954;20.118;2023-05-10T10:24:53;4.60;;;2.40;;
35847;SDS011;22332;51.954;20.118;2023-05-10T10:28:02;5.30;;;2.20;;
35847;SDS011;22332;51.954;20.118;2023-05-10T10:31:23;5.20;;;2.30;;
35847;SDS011;22332;51.954;20.118;2023-05-10T10:34:36;3.40;;;2.40;;
35847;SDS011;22332;51.954;20.118;2023-05-10T10:37:45;7.20;;;2.30;;
35847;SDS011;22332;51.954;20.118;2023-05-10T10:40:56;3.80;;;2.20;;
35847;SDS011;22332;51.954;20.118;2023-05-10T10:44:35;7.60;;;2.20;;
35847;SDS011;22332;51.954;20.118;2023-05-10T10:47:43;2.70;;;2.10;;
35847;SDS011;22332;51.954;20.118;2023-05-10T10:50:51;3.50;;;1.90;;
35847;SDS011;22332;51.954;20.118;2023-05-10T10:54:09;3.20;;;1.90;;
35847;SDS011;22332;51.954;20.118;2023-05-10T10:57:17;5.70;;;1.90;;
35847;SDS011;22332;51.954;20.118;2023-05-10T11:00:26;4.80;;;1.80;;
35847;SDS011;22332;51.954;20.118;2023-05-10T11:03:33;2.90;;;2.00;;
35847;SDS011;22332;51.954;20.118;2023-05-10T11:06:38;5.30;;;1.90;;
35847;SDS011;22332;51.954;20.118;2023-05-10T11:09:45;2.00;;;1.80;;
35847;SDS011;22332;51.954;20.118;2023-05-10T11:12:54;4.10;;;2.00;;
35847;SDS011;22332;51.954;20.118;2023-05-10T11:16:12;4.20;;;2.00;;
35847;SDS011;22332;51.954;20.118;2023-05-10T11:19:19;3.90;;;2.00;;
35847;SDS011;22332;51.954;20.118;2023-05-10T11:22:25;4.60;;;2.20;;
35847;SDS011;22332;51.954;20.118;2023-05-10T11:25:31;2.40;;;1.90;;
35847;SDS011;22332;51.954;20.118;2023-05-10T11:28:40;5.70;;;2.00;;
35847;SDS011;22332;51.954;20.118;2023-05-10T11:31:46;3.60;;;1.90;;
35847;SDS011;22332;51.954;20.118;2023-05-10T11:34:53;4.60;;;2.40;;
35847;SDS011;22332;51.954;20.118;2023-05-10T11:37:58;3.30;;;2.00;;
35847;SDS011;22332;51.954;20.118;2023-05-10T11:41:05;3.10;;;2.10;;
35847;SDS011;22332;51.954;20.118;2023-05-10T11:44:11;4.50;;;2.20;;
35847;SDS011;22332;51.954;20.118;2023-05-10T11:47:16;2.20;;;1.90;;
35847;SDS011;22332;51.954;20.118;2023-05-10T11:50:22;5.30;;;2.00;;
35847;SDS011;22332;51.954;20.118;2023-05-10T11:53:28;3.30;;;2.30;;
35847;SDS011;22332;51.954;20.118;2023-05-10T11:56:35;5.00;;;2.10;;
35847;SDS011;22332;51.954;20.118;2023-05-10T11:59:42;3.40;;;1.90;;
35847;SDS011;22332;51.954;20.118;2023-05-10T12:02:48;2.40;;;1.90;;
35847;SDS011;22332;51.954;20.118;2023-05-10T12:05:53;4.30;;;1.90;;
35847;SDS011;22332;51.954;20.118;2023-05-10T12:09:01;3.90;;;1.90;;
35847;SDS011;22332;51.954;20.118;2023-05-10T12:12:11;2.80;;;2.10;;
35847;SDS011;22332;51.954;20.118;2023-05-10T12:15:21;2.20;;;1.90;;
35847;SDS011;22332;51.954;20.118;2023-05-10T12:18:28;5.10;;;2.10;;
35847;SDS011;22332;51.954;20.118;2023-05-10T12:21:33;3.90;;;2.00;;
35847;SDS011;22332;51.954;20.118;2023-05-10T12:24:41;2.90;;;2.00;;
35847;SDS011;22332;51.954;20.118;2023-05-10T12:27:52;4.80;;;2.10;;
35847;SDS011;22332;51.954;20.118;2023-05-10T12:31:00;3.60;;;2.00;;
35847;SDS011;22332;51.954;20.118;2023-05-10T12:34:06;5.00;;;2.00;;
35847;SDS011;22332;51.954;20.118;2023-05-10T12:37:13;5.30;;;2.00;;
35847;SDS011;22332;51.954;20.118;2023-05-10T12:40:19;5.40;;;2.00;;
35847;SDS011;22332;51.954;20.118;2023-05-10T12:43:25;5.30;;;2.20;;
35847;SDS011;22332;51.954;20.118;2023-05-10T12:46:30;5.20;;;2.10;;
35847;SDS011;22332;51.954;20.118;2023-05-10T12:49:36;3.00;;;1.80;;
35847;SDS011;22332;51.954;20.118;2023-05-10T12:52:42;4.30;;;2.20;;
35847;SDS011;22332;51.954;20.118;2023-05-10T12:55:47;4.00;;;2.10;;
35847;SDS011;22332;51.954;20.118;2023-05-10T12:58:52;4.60;;;2.20;;
35847;SDS011;22332;51.954;20.118;2023-05-10T13:01:58;6.00;;;1.90;;
35847;SDS011;22332;51.954;20.118;2023-05-10T13:05:04;4.50;;;2.00;;
35847;SDS011;22332;51.954;20.118;2023-05-10T13:08:11;5.00;;;2.00;;
35847;SDS011;22332;51.954;20.118;2023-05-10T13:11:16;3.20;;;1.80;;
35847;SDS011;22332;51.954;20.118;2023-05-10T13:14:24;2.30;;;1.90;;
35847;SDS011;22332;51.954;20.118;2023-05-10T13:17:30;2.80;;;1.90;;
35847;SDS011;22332;51.954;20.118;2023-05-10T13:20:35;3.90;;;2.30;;
35847;SDS011;22332;51.954;20.118;2023-05-10T13:23:41;2.30;;;1.90;;
35847;SDS011;22332;51.954;20.118;2023-05-10T13:26:47;3.10;;;2.20;;
35847;SDS011;22332;51.954;20.118;2023-05-10T13:29:53;3.20;;;2.00;;
35847;SDS011;22332;51.954;20.118;2023-05-10T13:32:58;6.20;;;2.20;;
35847;SDS011;22332;51.954;20.118;2023-05-10T13:36:04;3.40;;;2.00;;
35847;SDS011;22332;51.954;20.118;2023-05-10T13:39:10;4.10;;;2.10;;
35847;SDS011;22332;51.954;20.118;2023-05-10T13:42:17;3.70;;;2.10;;
35847;SDS011;22332;51.954;20.118;2023-05-10T13:45:23;2.90;;;1.90;;
35847;SDS011;22332;51.954;20.118;2023-05-10T13:48:28;4.70;;;2.20;;
35847;SDS011;22332;51.954;20.118;2023-05-10T13:51:34;5.60;;;2.00;;
35847;SDS011;22332;51.954;20.118;2023-05-10T13:54:40;3.60;;;1.80;;
35847;SDS011;22332;51.954;20.118;2023-05-10T13:57:46;4.10;;;1.90;;
35847;SDS011;22332;51.954;20.118;2023-05-10T14:00:51;5.30;;;2.10;;
35847;SDS011;22332;51.954;20.118;2023-05-10T14:03:57;4.90;;;2.10;;
35847;SDS011;22332;51.954;20.118;2023-05-10T14:07:03;2.90;;;2.20;;
35847;SDS011;22332;51.954;20.118;2023-05-10T14:10:09;2.90;;;2.10;;
35847;SDS011;22332;51.954;20.118;2023-05-10T14:13:15;3.00;;;2.00;;
35847;SDS011;22332;51.954;20.118;2023-05-10T14:16:20;5.00;;;2.00;;
35847;SDS011;22332;51.954;20.118;2023-05-10T14:19:26;3.20;;;1.90;;
35847;SDS011;22332;51.954;20.118;2023-05-10T14:22:35;3.90;;;2.00;;
35847;SDS011;22332;51.954;20.118;2023-05-10T14:25:40;3.80;;;2.20;;
35847;SDS011;22332;51.954;20.118;2023-05-10T14:28:46;2.90;;;2.00;;
35847;SDS011;22332;51.954;20.118;2023-05-10T14:31:52;3.20;;;2.10;;
35847;SDS011;22332;51.954;20.118;2023-05-10T14:34:57;3.90;;;1.90;;
35847;SDS011;22332;51.954;20.118;2023-05-10T14:38:03;5.10;;;2.20;;
35847;SDS011;22332;51.954;20.118;2023-05-10T14:41:09;4.40;;;2.30;;
35847;SDS011;22332;51.954;20.118;2023-05-10T14:44:16;4.90;;;2.10;;
35847;SDS011;22332;51.954;20.118;2023-05-10T14:47:22;4.90;;;2.50;;
35847;SDS011;22332;51.954;20.118;2023-05-10T14:50:28;2.90;;;2.10;;
35847;SDS011;22332;51.954;20.118;2023-05-10T14:53:33;5.40;;;2.90;;
35847;SDS011;22332;51.954;20.118;2023-05-10T14:56:39;3.80;;;2.30;;
35847;SDS011;22332;51.954;20.118;2023-05-10T14:59:45;3.50;;;2.30;;
35847;SDS011;22332;51.954;20.118;2023-05-10T15:02:50;4.30;;;2.30;;
35847;SDS011;22332;51.954;20.118;2023-05-10T15:05:56;5.00;;;2.20;;
35847;SDS011;22332;51.954;20.118;2023-05-10T15:09:02;5.10;;;2.60;;
35847;SDS011;22332;51.954;20.118;2023-05-10T15:12:08;5.60;;;2.60;;
35847;SDS011;22332;51.954;20.118;2023-05-10T15:15:13;6.10;;;2.30;;
35847;SDS011;22332;51.954;20.118;2023-05-10T15:18:19;5.30;;;2.20;;
35847;SDS011;22332;51.954;20.118;2023-05-10T15:21:24;4.80;;;2.30;;
35847;SDS011;22332;51.954;20.118;2023-05-10T15:24:31;5.30;;;2.70;;
35847;SDS011;22332;51.954;20.118;2023-05-10T15:27:36;4.00;;;2.80;;
35847;SDS011;22332;51.954;20.118;2023-05-10T15:30:42;4.10;;;2.50;;
35847;SDS011;22332;51.954;20.118;2023-05-10T15:33:48;4.50;;;2.40;;
35847;SDS011;22332;51.954;20.118;2023-05-10T15:36:54;5.10;;;2.50;;
35847;SDS011;22332;51.954;20.118;2023-05-10T15:39:59;4.40;;;2.40;;
35847;SDS011;22332;51.954;20.118;2023-05-10T15:43:09;5.60;;;2.30;;
35847;SDS011;22332;51.954;20.118;2023-05-10T15:46:14;6.90;;;4.10;;
35847;SDS011;22332;51.954;20.118;2023-05-10T15:49:20;4.20;;;3.10;;
35847;SDS011;22332;51.954;20.118;2023-05-10T15:52:25;4.00;;;3.00;;
35847;SDS011;22332;51.954;20.118;2023-05-10T15:55:31;3.70;;;2.70;;
35847;SDS011;22332;51.954;20.118;2023-05-10T15:58:36;5.50;;;2.70;;
35847;SDS011;22332;51.954;20.118;2023-05-10T16:01:43;4.20;;;2.30;;
35847;SDS011;22332;51.954;20.118;2023-05-10T16:04:49;3.10;;;2.20;;
35847;SDS011;22332;51.954;20.118;2023-05-10T16:07:54;3.80;;;2.50;;
35847;SDS011;22332;51.954;20.118;2023-05-10T16:10:59;5.50;;;3.50;;
35847;SDS011;22332;51.954;20.118;2023-05-10T16:14:05;4.60;;;3.20;;
35847;SDS011;22332;51.954;20.118;2023-05-10T16:17:11;5.00;;;2.90;;
35847;SDS011;22332;51.954;20.118;2023-05-10T16:20:17;4.40;;;2.50;;
35847;SDS011;22332;51.954;20.118;2023-05-10T16:23:22;5.30;;;2.60;;
35847;SDS011;22332;51.954;20.118;2023-05-10T16:26:28;2.80;;;2.40;;
35847;SDS011;22332;51.954;20.118;2023-05-10T16:29:34;5.70;;;2.90;;
35847;SDS011;22332;51.954;20.118;2023-05-10T16:32:39;4.10;;;2.70;;
35847;SDS011;22332;51.954;20.118;2023-05-10T16:35:45;6.10;;;3.00;;
35847;SDS011;22332;51.954;20.118;2023-05-10T16:38:50;4.40;;;2.90;;
35847;SDS011;22332;51.954;20.118;2023-05-10T16:41:56;8.20;;;2.70;;
35847;SDS011;22332;51.954;20.118;2023-05-10T16:45:01;4.10;;;2.60;;
35847;SDS011;22332;51.954;20.118;2023-05-10T16:48:10;4.50;;;2.20;;
35847;SDS011;22332;51.954;20.118;2023-05-10T16:51:16;3.90;;;2.60;;
35847;SDS011;22332;51.954;20.118;2023-05-10T16:54:21;4.10;;;3.10;;
35847;SDS011;22332;51.954;20.118;2023-05-10T16:57:27;7.10;;;3.80;;
35847;SDS011;22332;51.954;20.118;2023-05-10T17:00:34;6.60;;;3.10;;
35847;SDS011;22332;51.954;20.118;2023-05-10T17:03:40;4.40;;;3.40;;
35847;SDS011;22332;51.954;20.118;2023-05-10T17:06:45;6.00;;;3.20;;
35847;SDS011;22332;51.954;20.118;2023-05-10T17:09:51;5.10;;;3.40;;
35847;SDS011;22332;51.954;20.118;2023-05-10T17:12:56;9.40;;;5.60;;
35847;SDS011;22332;51.954;20.118;2023-05-10T17:16:02;11.40;;;6.50;;
35847;SDS011;22332;51.954;20.118;2023-05-10T17:19:08;16.60;;;10.60;;
35847;SDS011;22332;51.954;20.118;2023-05-10T17:22:14;10.90;;;5.60;;
35847;SDS011;22332;51.954;20.118;2023-05-10T17:25:20;6.30;;;3.50;;
35847;SDS011;22332;51.954;20.118;2023-05-10T17:28:25;6.70;;;3.80;;
35847;SDS011;22332;51.954;20.118;2023-05-10T17:31:31;8.10;;;3.70;;
35847;SDS011;22332;51.954;20.118;2023-05-10T17:34:37;10.30;;;5.80;;
35847;SDS011;22332;51.954;20.118;2023-05-10T17:37:42;7.70;;;4.20;;
35847;SDS011;22332;51.954;20.118;2023-05-10T17:40:49;7.00;;;3.90;;
35847;SDS011;22332;51.954;20.118;2023-05-10T17:43:55;7.20;;;3.80;;
35847;SDS011;22332;51.954;20.118;2023-05-10T17:47:00;7.10;;;3.70;;
35847;SDS011;22332;51.954;20.118;2023-05-10T17:50:07;6.80;;;3.30;;
35847;SDS011;22332;51.954;20.118;2023-05-10T17:53:13;3.80;;;2.90;;
35847;SDS011;22332;51.954;20.118;2023-05-10T17:56:19;8.10;;;3.70;;
35847;SDS011;22332;51.954;20.118;2023-05-10T17:59:25;7.10;;;4.90;;
35847;SDS011;22332;51.954;20.118;2023-05-10T18:02:30;7.20;;;4.40;;
35847;SDS011;22332;51.954;20.118;2023-05-10T18:05:37;14.20;;;6.40;;
35847;SDS011;22332;51.954;20.118;2023-05-10T18:08:43;14.10;;;7.70;;
35847;SDS011;22332;51.954;20.118;2023-05-10T18:11:48;13.10;;;6.50;;
35847;SDS011;22332;51.954;20.118;2023-05-10T18:14:54;8.80;;;4.30;;
35847;SDS011;22332;51.954;20.118;2023-05-10T18:18:01;6.20;;;4.10;;
35847;SDS011;22332;51.954;20.118;2023-05-10T18:21:07;10.20;;;3.60;;
35847;SDS011;22332;51.954;20.118;2023-05-10T18:24:13;7.10;;;3.70;;
35847;SDS011;22332;51.954;20.118;2023-05-10T18:27:19;13.60;;;6.20;;